createdAt,value
2019-05-22T00:01:20.384Z,14.90
2019-05-22T00:06:26.495Z,14.63
2019-05-22T00:11:30.085Z,14.10
2019-05-22T00:16:34.638Z,15.97
2019-05-22T00:21:40.363Z,13.20
2019-05-22T00:26:44.035Z,13.27
2019-05-22T00:31:48.172Z,12.83
2019-05-22T00:36:52.452Z,15.10
2019-05-22T00:41:56.962Z,14.87
2019-05-22T00:47:01.981Z,16.77
2019-05-22T00:52:07.218Z,14.20
2019-05-22T00:57:28.735Z,14.83
2019-05-22T01:02:36.762Z,15.90
2019-05-22T01:07:42.987Z,19.43
2019-05-22T01:12:55.003Z,17.07
2019-05-22T01:18:00.710Z,15.47
2019-05-22T01:23:06.624Z,17.07
2019-05-22T01:28:12.806Z,15.10
2019-05-22T01:33:30.203Z,15.97
2019-05-22T01:38:38.682Z,14.93
2019-05-22T01:43:43.913Z,17.67
2019-05-22T01:48:48.546Z,15.83
2019-05-22T01:53:54.021Z,16.27
2019-05-22T01:59:00.683Z,15.93
2019-05-22T02:04:06.092Z,16.60
2019-05-22T02:09:21.824Z,16.70
2019-05-22T02:14:25.582Z,15.47
2019-05-22T02:19:29.700Z,16.93
2019-05-22T02:24:33.927Z,16.83
2019-05-22T02:29:39.143Z,17.40
2019-05-22T02:34:44.034Z,17.23
2019-05-22T02:39:49.063Z,16.87
2019-05-22T02:44:53.570Z,16.83
2019-05-22T02:49:58.423Z,15.37
2019-05-22T02:55:02.267Z,14.17
2019-05-22T03:00:09.138Z,14.40
2019-05-22T03:05:15.369Z,14.07
2019-05-22T03:10:20.607Z,13.50
2019-05-22T03:15:24.553Z,15.37
2019-05-22T03:20:29.865Z,15.27
2019-05-22T03:25:34.122Z,15.87
2019-05-22T03:30:41.168Z,14.37
2019-05-22T03:35:47.507Z,14.77
2019-05-22T03:40:53.465Z,18.27
2019-05-22T03:45:59.136Z,15.40
2019-05-22T03:51:14.689Z,16.17
2019-05-22T03:56:20.031Z,18.57
2019-05-22T04:01:24.246Z,17.77
2019-05-22T04:06:28.660Z,21.73
2019-05-22T04:11:36.986Z,32.13
2019-05-22T04:16:40.976Z,16.90
2019-05-22T04:21:46.778Z,17.53
2019-05-22T04:26:51.197Z,17.63
2019-05-22T04:31:56.620Z,17.33
2019-05-22T04:37:01.454Z,36.67
2019-05-22T04:42:07.773Z,18.93
2019-05-22T04:47:14.060Z,25.07
2019-05-22T04:52:18.029Z,25.00
2019-05-22T04:57:22.088Z,26.17
2019-05-22T05:02:27.223Z,19.83
2019-05-22T05:07:33.386Z,27.80
2019-05-22T05:12:37.141Z,16.17
2019-05-22T05:17:40.895Z,16.33
2019-05-22T05:22:46.256Z,16.67
2019-05-22T05:27:49.983Z,15.93
2019-05-22T05:32:53.725Z,21.60
2019-05-22T05:37:58.238Z,16.73
2019-05-22T05:43:03.182Z,15.73
2019-05-22T05:48:09.559Z,13.90
2019-05-22T05:53:18.993Z,13.93
2019-05-22T05:58:27.890Z,14.87
2019-05-22T06:03:42.459Z,15.10
2019-05-22T06:08:48.007Z,15.30
2019-05-22T06:13:51.759Z,13.50
2019-05-22T06:18:57.123Z,12.27
2019-05-22T06:24:19.668Z,13.50
2019-05-22T06:29:28.485Z,14.30
2019-05-22T06:34:32.420Z,15.23
2019-05-22T06:39:37.042Z,12.87
2019-05-22T06:44:42.584Z,13.90
2019-05-22T06:49:46.803Z,13.53
2019-05-22T06:54:51.801Z,14.57
2019-05-22T07:00:12.165Z,13.80
2019-05-22T07:05:03.514Z,13.60
2019-05-22T07:10:08.515Z,13.57
2019-05-22T07:15:21.181Z,14.00
2019-05-22T07:20:24.048Z,13.43
2019-05-22T07:25:29.411Z,9.97
2019-05-22T07:30:33.559Z,13.83
2019-05-22T07:35:50.372Z,10.87
2019-05-22T07:40:44.061Z,8.60
2019-05-22T07:45:47.828Z,7.33
2019-05-22T07:50:54.258Z,5.27
2019-05-22T07:56:00.712Z,5.37
2019-05-22T08:01:05.481Z,6.67
2019-05-22T08:06:09.424Z,6.83
2019-05-22T08:11:14.223Z,7.50
2019-05-22T08:16:19.397Z,7.87
2019-05-22T08:21:25.549Z,7.73
2019-05-22T08:26:30.293Z,6.50
2019-05-22T08:31:34.847Z,5.50
2019-05-22T08:36:41.815Z,6.30
2019-05-22T08:41:45.723Z,6.90
2019-05-22T08:46:51.490Z,7.77
2019-05-22T08:51:55.407Z,5.83
2019-05-22T08:56:59.550Z,6.33
2019-05-22T09:02:05.127Z,6.00
2019-05-22T09:07:09.207Z,4.77
2019-05-22T09:12:13.337Z,3.60
2019-05-22T09:17:17.751Z,4.43
2019-05-22T09:22:39.340Z,5.27
2019-05-22T09:27:30.325Z,4.33
2019-05-22T09:32:34.602Z,4.20
2019-05-22T09:37:38.465Z,2.30
2019-05-22T09:42:45.031Z,2.53
2019-05-22T09:47:49.249Z,2.03
2019-05-22T09:52:57.738Z,1.87
2019-05-22T09:57:58.967Z,2.33
2019-05-22T10:03:04.732Z,2.40
2019-05-22T10:08:09.583Z,2.73
2019-05-22T10:13:13.527Z,3.20
2019-05-22T10:18:17.670Z,1.73
2019-05-22T10:23:23.224Z,1.37
2019-05-22T10:28:27.369Z,1.40
2019-05-22T10:33:31.110Z,3.87
2019-05-22T10:38:36.020Z,1.47
2019-05-22T10:43:44.057Z,1.27
2019-05-22T10:48:48.294Z,1.60
2019-05-22T10:53:52.431Z,1.53
2019-05-22T10:58:57.325Z,1.50
2019-05-22T11:04:01.607Z,1.20
2019-05-22T11:09:07.134Z,1.57
2019-05-22T11:14:11.469Z,1.40
2019-05-22T11:19:15.799Z,1.33
2019-05-22T11:24:21.279Z,1.50
2019-05-22T11:29:26.047Z,1.60
2019-05-22T11:34:31.981Z,1.37
2019-05-22T11:39:39.754Z,1.67
2019-05-22T11:44:42.413Z,1.50
2019-05-22T11:49:46.374Z,1.30
2019-05-22T11:54:50.513Z,1.40
2019-05-22T11:59:54.720Z,1.50
2019-05-22T12:04:58.465Z,1.93
2019-05-22T12:10:02.943Z,1.53
2019-05-22T12:15:08.544Z,1.70
2019-05-22T12:20:14.772Z,1.73
2019-05-22T12:25:19.387Z,1.80
2019-05-22T12:30:23.642Z,1.70
2019-05-22T12:35:28.543Z,1.80
2019-05-22T12:40:33.823Z,2.00
2019-05-22T12:45:37.567Z,1.80
2019-05-22T12:50:41.572Z,1.83
2019-05-22T12:55:45.812Z,2.63
2019-05-22T13:00:49.741Z,1.90
2019-05-22T13:05:53.484Z,1.93
2019-05-22T13:10:58.554Z,1.80
2019-05-22T13:16:08.651Z,1.70
2019-05-22T13:21:11.826Z,1.70
2019-05-22T13:26:17.304Z,1.70
2019-05-22T13:31:21.334Z,1.70
2019-05-22T13:36:25.232Z,1.60
2019-05-22T13:41:49.979Z,1.77
2019-05-22T13:46:54.107Z,2.30
2019-05-22T13:51:57.761Z,1.60
2019-05-22T13:57:02.292Z,1.77
2019-05-22T14:02:06.324Z,1.67
2019-05-22T14:07:10.636Z,1.80
2019-05-22T14:12:14.489Z,1.60
2019-05-22T14:17:18.530Z,1.50
2019-05-22T14:22:23.890Z,1.50
2019-05-22T14:27:28.201Z,1.50
2019-05-22T14:32:32.030Z,1.30
2019-05-22T14:37:36.203Z,1.43
2019-05-22T14:42:40.019Z,1.50
2019-05-22T14:47:44.037Z,1.50
2019-05-22T14:52:48.071Z,1.43
2019-05-22T14:57:53.094Z,1.43
2019-05-22T15:02:59.091Z,1.77
2019-05-22T15:08:03.513Z,1.63
2019-05-22T15:13:08.716Z,1.37
2019-05-22T15:18:12.437Z,1.53
2019-05-22T15:23:16.181Z,1.53
2019-05-22T15:28:20.282Z,1.40
2019-05-22T15:33:24.710Z,1.50
2019-05-22T15:38:30.389Z,1.40
2019-05-22T15:43:35.271Z,1.70
2019-05-22T15:48:41.457Z,1.80
2019-05-22T15:53:47.267Z,1.63
2019-05-22T15:58:54.063Z,1.80
2019-05-22T16:03:59.414Z,1.40
2019-05-22T16:09:06.853Z,1.70
2019-05-22T16:14:11.189Z,1.50
2019-05-22T16:19:15.081Z,1.60
2019-05-22T16:24:19.766Z,1.50
2019-05-22T16:29:24.616Z,1.80
2019-05-22T16:34:29.438Z,1.53
2019-05-22T16:39:34.258Z,1.60
2019-05-22T16:44:38.858Z,1.80
2019-05-22T16:49:43.258Z,1.60
2019-05-22T16:54:47.694Z,1.60
2019-05-22T16:59:52.406Z,1.80
2019-05-22T17:04:56.845Z,1.83
2019-05-22T17:10:02.166Z,2.10
2019-05-22T17:15:08.677Z,1.70
2019-05-22T17:20:13.375Z,1.97
2019-05-22T17:25:20.252Z,1.77
2019-05-22T17:30:26.215Z,2.10
2019-05-22T17:35:31.109Z,1.80
2019-05-22T17:40:36.930Z,2.00
2019-05-22T17:45:42.979Z,1.90
2019-05-22T17:50:47.425Z,2.10
2019-05-22T17:55:51.727Z,2.27
2019-05-22T18:00:56.084Z,2.40
2019-05-22T18:06:00.627Z,2.57
2019-05-22T18:11:07.454Z,2.40
2019-05-22T18:16:12.135Z,2.43
2019-05-22T18:21:16.458Z,2.00
2019-05-22T18:26:21.049Z,2.37
2019-05-22T18:31:25.341Z,2.40
2019-05-22T18:36:29.795Z,2.63
2019-05-22T18:41:33.722Z,2.80
2019-05-22T18:46:37.929Z,2.50
2019-05-22T18:51:41.941Z,2.70
2019-05-22T18:56:45.718Z,2.60
2019-05-22T19:01:49.557Z,2.63
2019-05-22T19:06:56.021Z,2.23
2019-05-22T19:11:59.869Z,2.37
2019-05-22T19:17:03.894Z,4.10
2019-05-22T19:22:08.143Z,9.97
2019-05-22T19:27:12.099Z,4.73
2019-05-22T19:32:16.130Z,4.50
2019-05-22T19:37:20.381Z,4.17
2019-05-22T19:42:24.296Z,4.70
2019-05-22T19:47:28.395Z,6.83
2019-05-22T19:52:41.730Z,3.97
2019-05-22T19:57:41.521Z,3.43
2019-05-22T20:02:46.215Z,3.00
2019-05-22T20:07:50.170Z,3.30
2019-05-22T20:12:55.375Z,3.30
2019-05-22T20:18:00.163Z,3.80
2019-05-22T20:23:04.918Z,2.93
2019-05-22T20:28:09.548Z,2.90
2019-05-22T20:33:13.640Z,3.33
2019-05-22T20:38:18.160Z,3.23
2019-05-22T20:43:22.430Z,3.30
2019-05-22T20:48:28.831Z,3.10
2019-05-22T20:53:52.360Z,3.30
2019-05-22T20:58:42.890Z,3.30
2019-05-22T21:03:46.481Z,3.37
2019-05-22T21:08:50.879Z,3.30
2019-05-22T21:13:54.710Z,3.43
2019-05-22T21:18:58.756Z,4.10
2019-05-22T21:24:22.335Z,6.50
2019-05-22T21:29:25.994Z,4.97
2019-05-22T21:34:31.430Z,4.00
2019-05-22T21:39:35.361Z,5.03
2019-05-22T21:44:38.945Z,3.63
2019-05-22T21:49:44.674Z,5.80
2019-05-22T21:54:48.713Z,5.13
2019-05-22T21:59:52.476Z,5.70
2019-05-22T22:04:56.441Z,5.40
2019-05-22T22:10:00.652Z,5.73
2019-05-22T22:15:06.185Z,4.63
2019-05-22T22:20:11.692Z,4.10
2019-05-22T22:25:16.790Z,4.37
2019-05-22T22:30:45.606Z,4.43
2019-05-22T22:35:51.193Z,5.30
2019-05-22T22:40:57.507Z,8.93
2019-05-22T22:46:11.156Z,7.60
2019-05-22T22:51:16.585Z,7.97
2019-05-22T22:56:20.925Z,6.83
2019-05-22T23:01:29.253Z,7.70
2019-05-22T23:06:36.281Z,6.27
2019-05-22T23:11:42.100Z,4.60
2019-05-22T23:16:47.027Z,4.23
2019-05-22T23:21:50.408Z,5.23
2019-05-22T23:26:54.291Z,7.57
2019-05-22T23:31:59.922Z,4.83
2019-05-22T23:37:03.826Z,6.90
2019-05-22T23:42:12.125Z,14.67
2019-05-22T23:47:16.262Z,6.57
2019-05-22T23:52:20.239Z,8.30
2019-05-22T23:57:24.666Z,6.50
